createdAt,value
2017-10-01T00:02:13.955Z,79.20
2017-10-01T00:04:41.111Z,79.30
2017-10-01T00:07:07.498Z,79.30
2017-10-01T00:09:33.906Z,79.50
2017-10-01T00:12:00.320Z,79.00
2017-10-01T00:14:26.776Z,78.90
2017-10-01T00:16:53.194Z,79.00
2017-10-01T00:19:19.580Z,78.90
2017-10-01T00:21:46.752Z,79.40
2017-10-01T00:24:13.162Z,79.50
2017-10-01T00:26:39.545Z,79.80
2017-10-01T00:29:05.973Z,79.70
2017-10-01T00:31:32.391Z,79.30
2017-10-01T00:33:58.787Z,79.30
2017-10-01T00:36:25.327Z,79.30
2017-10-01T00:38:51.731Z,78.10
2017-10-01T00:41:18.166Z,80.30
2017-10-01T00:43:44.600Z,80.50
2017-10-01T00:46:11.007Z,80.70
2017-10-01T00:48:37.447Z,80.00
2017-10-01T00:51:03.895Z,79.90
2017-10-01T00:53:30.450Z,79.60
2017-10-01T00:55:56.883Z,79.50
2017-10-01T00:58:23.287Z,79.80
2017-10-01T01:00:49.821Z,79.10
2017-10-01T01:03:16.375Z,79.60
2017-10-01T01:05:42.795Z,80.20
2017-10-01T01:08:09.240Z,80.40
2017-10-01T01:10:35.808Z,80.10
2017-10-01T01:13:03.082Z,80.30
2017-10-01T01:15:29.475Z,80.00
2017-10-01T01:17:55.896Z,80.00
2017-10-01T01:20:22.356Z,80.30
2017-10-01T01:22:49.519Z,80.60
2017-10-01T01:25:16.711Z,79.50
2017-10-01T01:27:43.155Z,79.50
2017-10-01T01:30:09.595Z,80.20
2017-10-01T01:32:36.045Z,79.00
2017-10-01T01:35:02.461Z,79.30
2017-10-01T01:37:28.943Z,81.30
2017-10-01T01:39:56.103Z,80.50
2017-10-01T01:42:22.579Z,80.50
2017-10-01T01:44:49.127Z,80.60
2017-10-01T01:47:15.575Z,80.00
2017-10-01T01:49:42.015Z,80.00
2017-10-01T01:52:09.234Z,80.80
2017-10-01T01:54:35.683Z,80.70
2017-10-01T01:57:02.143Z,80.30
2017-10-01T01:59:29.391Z,80.90
2017-10-01T02:01:56.571Z,80.30
2017-10-01T02:04:23.008Z,80.30
2017-10-01T02:06:49.494Z,81.00
2017-10-01T02:09:15.953Z,80.00
2017-10-01T02:11:42.407Z,79.90
2017-10-01T02:14:08.894Z,80.10
2017-10-01T02:16:35.358Z,79.00
2017-10-01T02:19:01.789Z,80.10
2017-10-01T02:21:28.794Z,80.20
2017-10-01T02:23:55.204Z,80.10
2017-10-01T02:26:21.663Z,80.00
2017-10-01T02:28:48.110Z,79.70
2017-10-01T02:31:14.576Z,79.30
2017-10-01T02:33:41.059Z,80.10
2017-10-01T02:36:07.515Z,78.90
2017-10-01T02:38:34.724Z,79.00
2017-10-01T02:41:01.168Z,78.80
2017-10-01T02:43:27.650Z,78.60
2017-10-01T02:45:54.123Z,78.90
2017-10-01T02:48:20.546Z,79.30
2017-10-01T02:50:47.036Z,79.20
2017-10-01T02:53:14.207Z,79.10
2017-10-01T02:55:40.656Z,79.00
2017-10-01T02:58:07.231Z,79.50
2017-10-01T03:00:33.671Z,79.30
2017-10-01T03:03:00.092Z,79.20
2017-10-01T03:05:26.539Z,78.90
2017-10-01T03:07:52.987Z,78.90
2017-10-01T03:10:20.328Z,79.20
2017-10-01T03:12:46.783Z,79.20
2017-10-01T03:15:13.971Z,79.50
2017-10-01T03:17:40.415Z,79.50
2017-10-01T03:20:06.965Z,78.60
2017-10-01T03:22:33.441Z,79.10
2017-10-01T03:24:59.870Z,79.20
2017-10-01T03:27:27.071Z,79.60
2017-10-01T03:29:53.683Z,79.60
2017-10-01T03:32:20.111Z,78.80
2017-10-01T03:34:46.568Z,79.70
2017-10-01T03:37:13.042Z,79.10
2017-10-01T03:39:39.488Z,79.30
2017-10-01T03:42:06.831Z,79.40
2017-10-01T03:44:34.048Z,79.10
2017-10-01T03:47:00.523Z,78.90
2017-10-01T03:49:27.027Z,78.90
2017-10-01T03:51:53.459Z,78.90
2017-10-01T03:54:19.902Z,79.20
2017-10-01T03:56:46.407Z,79.40
2017-10-01T03:59:12.847Z,78.60
2017-10-01T04:01:39.228Z,77.70
2017-10-01T04:04:06.385Z,80.40
2017-10-01T04:06:33.546Z,80.00
2017-10-01T04:09:00.059Z,79.80
2017-10-01T04:11:27.198Z,78.80
2017-10-01T04:13:53.578Z,78.70
2017-10-01T04:16:20.027Z,80.20
2017-10-01T04:18:46.452Z,79.50
2017-10-01T04:21:12.870Z,78.90
2017-10-01T04:23:39.303Z,79.90
2017-10-01T04:26:05.813Z,79.80
2017-10-01T04:28:32.939Z,80.30
2017-10-01T04:30:59.351Z,80.10
2017-10-01T04:33:25.755Z,80.60
2017-10-01T04:35:52.131Z,79.50
2017-10-01T04:38:18.524Z,79.00
2017-10-01T04:40:44.974Z,82.00
2017-10-01T04:43:11.373Z,81.90
2017-10-01T04:45:37.823Z,81.30
2017-10-01T04:48:04.283Z,81.80
2017-10-01T04:50:31.475Z,82.50
2017-10-01T04:52:58.642Z,82.40
2017-10-01T04:55:25.059Z,82.40
2017-10-01T04:57:52.222Z,81.30
2017-10-01T05:00:18.627Z,81.30
2017-10-01T05:02:45.155Z,82.10
2017-10-01T05:05:11.596Z,83.50
2017-10-01T05:07:37.979Z,81.90
2017-10-01T05:10:05.112Z,80.00
2017-10-01T05:12:31.627Z,79.90
2017-10-01T05:14:58.762Z,80.00
2017-10-01T05:17:25.162Z,80.00
2017-10-01T05:19:51.611Z,80.40
2017-10-01T05:22:18.040Z,80.60
2017-10-01T05:24:44.447Z,80.90
2017-10-01T05:27:10.831Z,80.40
2017-10-01T05:29:37.980Z,79.90
2017-10-01T05:32:05.147Z,80.90
2017-10-01T05:34:31.558Z,80.40
2017-10-01T05:36:57.971Z,80.10
2017-10-01T05:39:24.359Z,81.10
2017-10-01T05:41:50.755Z,81.10
2017-10-01T05:44:17.357Z,81.80
2017-10-01T05:46:44.544Z,81.80
2017-10-01T05:49:11.667Z,81.30
2017-10-01T05:51:38.095Z,81.20
2017-10-01T05:54:04.471Z,80.60
2017-10-01T05:56:31.758Z,80.20
2017-10-01T05:58:58.159Z,80.20
2017-10-01T06:01:25.306Z,79.80
2017-10-01T06:03:52.480Z,80.00
2017-10-01T06:06:19.098Z,80.00
2017-10-01T06:08:45.544Z,80.10
2017-10-01T06:11:11.962Z,79.90
2017-10-01T06:13:38.354Z,79.70
2017-10-01T06:16:04.742Z,79.80
2017-10-01T06:18:31.154Z,79.50
2017-10-01T06:20:58.294Z,79.00
2017-10-01T06:23:24.732Z,79.00
2017-10-01T06:25:51.922Z,78.70
2017-10-01T06:28:18.343Z,78.60
2017-10-01T06:30:44.738Z,79.20
2017-10-01T06:33:11.218Z,79.70
2017-10-01T06:35:37.758Z,78.60
2017-10-01T06:38:04.196Z,78.80
2017-10-01T06:40:30.683Z,78.80
2017-10-01T06:42:57.114Z,78.30
2017-10-01T06:45:24.427Z,77.50
2017-10-01T06:47:50.880Z,77.50
2017-10-01T06:50:17.399Z,79.60
2017-10-01T06:52:44.563Z,77.40
2017-10-01T06:55:11.714Z,77.20
2017-10-01T06:57:38.139Z,77.10
2017-10-01T07:00:04.744Z,77.80
2017-10-01T07:02:31.235Z,77.50
2017-10-01T07:04:58.380Z,75.00
2017-10-01T07:07:24.879Z,74.90
2017-10-01T07:09:51.279Z,77.00
2017-10-01T07:12:17.823Z,75.60
2017-10-01T07:14:44.247Z,75.60
2017-10-01T07:17:10.672Z,76.20
2017-10-01T07:19:37.847Z,76.00
2017-10-01T07:22:04.235Z,76.00
2017-10-01T07:24:30.839Z,74.10
2017-10-01T07:26:57.244Z,75.40
2017-10-01T07:29:23.639Z,74.90
2017-10-01T07:31:50.840Z,73.60
2017-10-01T07:34:17.264Z,73.70
2017-10-01T07:36:43.794Z,75.20
2017-10-01T07:39:10.195Z,74.30
2017-10-01T07:41:37.351Z,75.20
2017-10-01T07:44:04.543Z,75.10
2017-10-01T07:46:30.976Z,75.10
2017-10-01T07:48:57.406Z,74.10
2017-10-01T07:51:23.852Z,74.10
2017-10-01T07:53:50.268Z,72.40
2017-10-01T07:56:16.698Z,74.50
2017-10-01T07:58:43.178Z,72.40
2017-10-01T08:01:09.696Z,70.50
2017-10-01T08:03:36.144Z,72.70
2017-10-01T08:06:02.672Z,73.50
2017-10-01T08:08:29.070Z,72.60
2017-10-01T08:10:55.488Z,72.70
2017-10-01T08:13:21.907Z,69.70
2017-10-01T08:15:49.072Z,73.50
2017-10-01T08:18:15.503Z,73.50
2017-10-01T08:20:41.904Z,71.30
2017-10-01T08:23:08.343Z,72.60
2017-10-01T08:25:35.683Z,72.30
2017-10-01T08:28:02.152Z,72.30
2017-10-01T08:30:29.299Z,71.50
2017-10-01T08:32:55.727Z,71.50
2017-10-01T08:35:22.872Z,72.70
2017-10-01T08:37:50.143Z,70.50
2017-10-01T08:40:16.552Z,70.50
2017-10-01T08:42:43.020Z,69.90
2017-10-01T08:45:09.452Z,68.80
2017-10-01T08:47:35.831Z,69.90
2017-10-01T08:50:02.247Z,69.50
2017-10-01T08:52:28.667Z,69.20
2017-10-01T08:54:55.076Z,67.50
2017-10-01T08:57:21.596Z,69.10
2017-10-01T08:59:48.724Z,68.10
2017-10-01T09:02:15.108Z,68.10
2017-10-01T09:04:41.579Z,65.80
2017-10-01T09:07:07.977Z,65.00
2017-10-01T09:09:34.359Z,64.70
2017-10-01T09:12:00.823Z,66.40
2017-10-01T09:14:27.256Z,64.70
2017-10-01T09:16:53.708Z,59.70
2017-10-01T09:19:20.124Z,59.60
2017-10-01T09:21:46.554Z,58.90
2017-10-01T09:24:13.011Z,59.90
2017-10-01T09:26:39.426Z,58.60
2017-10-01T09:29:05.890Z,55.70
2017-10-01T09:31:32.308Z,56.30
2017-10-01T09:33:59.675Z,52.50
2017-10-01T09:36:26.091Z,54.30
2017-10-01T09:38:52.475Z,55.30
2017-10-01T09:41:19.034Z,58.40
2017-10-01T09:43:46.239Z,60.70
2017-10-01T09:46:12.623Z,60.60
2017-10-01T09:48:39.222Z,56.10
2017-10-01T09:51:06.379Z,54.50
2017-10-01T09:53:33.027Z,54.40
2017-10-01T09:56:03.787Z,54.30
2017-10-01T09:58:51.513Z,54.20
2017-10-01T10:01:18.236Z,56.80
2017-10-01T10:03:45.624Z,55.20
2017-10-01T10:06:12.162Z,55.10
2017-10-01T10:08:38.748Z,54.70
2017-10-01T10:11:05.324Z,55.90
2017-10-01T10:13:32.188Z,53.60
2017-10-01T10:15:58.800Z,54.20
2017-10-01T10:18:25.420Z,50.70
2017-10-01T10:20:51.919Z,51.70
2017-10-01T10:23:18.897Z,48.70
2017-10-01T10:25:45.664Z,49.50
2017-10-01T10:28:12.088Z,49.30
2017-10-01T10:30:38.634Z,47.80
2017-10-01T10:33:05.500Z,49.30
2017-10-01T10:35:32.258Z,51.00
2017-10-01T10:37:59.060Z,52.90
2017-10-01T10:40:26.179Z,50.80
2017-10-01T10:42:53.535Z,47.20
2017-10-01T10:45:20.116Z,47.10
2017-10-01T10:47:47.307Z,50.10
2017-10-01T10:50:14.579Z,47.50
2017-10-01T10:52:41.023Z,47.50
2017-10-01T10:55:07.549Z,46.60
2017-10-01T10:57:34.819Z,48.40
2017-10-01T11:00:01.263Z,47.50
2017-10-01T11:02:27.984Z,47.30
2017-10-01T11:04:55.385Z,45.70
2017-10-01T11:07:21.978Z,45.80
2017-10-01T11:09:48.725Z,43.80
2017-10-01T11:12:16.065Z,44.30
2017-10-01T11:14:42.540Z,45.60
2017-10-01T11:17:09.072Z,47.80
2017-10-01T11:19:35.697Z,45.30
2017-10-01T11:22:02.384Z,45.90
2017-10-01T11:24:28.863Z,46.00
2017-10-01T11:26:55.458Z,48.90
2017-10-01T11:29:22.183Z,49.40
2017-10-01T11:31:48.677Z,47.70
2017-10-01T11:34:15.179Z,46.50
2017-10-01T11:36:42.421Z,48.80
2017-10-01T11:39:09.579Z,48.80
2017-10-01T11:41:40.274Z,45.10
2017-10-01T11:44:08.948Z,44.90
2017-10-01T11:46:37.811Z,42.50
2017-10-01T11:49:08.663Z,43.90
2017-10-01T11:51:35.087Z,43.80
2017-10-01T11:56:38.244Z,43.60
2017-10-01T11:59:06.564Z,42.90
2017-10-01T12:01:43.845Z,42.50
2017-10-01T12:04:17.408Z,43.40
2017-10-01T12:06:45.891Z,45.60
2017-10-01T12:09:13.626Z,43.20
2017-10-01T12:11:40.479Z,40.20
2017-10-01T12:14:07.056Z,40.00
2017-10-01T12:16:33.954Z,42.00
2017-10-01T12:19:00.352Z,42.40
2017-10-01T12:21:27.286Z,39.50
2017-10-01T12:23:53.786Z,42.40
2017-10-01T12:26:20.335Z,41.00
2017-10-01T12:28:47.264Z,40.90
2017-10-01T12:31:13.825Z,37.60
2017-10-01T12:33:41.270Z,38.80
2017-10-01T12:36:07.904Z,38.80
2017-10-01T12:38:35.286Z,39.00
2017-10-01T12:41:02.889Z,40.10
2017-10-01T12:43:30.347Z,40.10
2017-10-01T12:45:57.734Z,39.90
2017-10-01T12:48:24.410Z,38.40
2017-10-01T12:50:51.954Z,39.80
2017-10-01T12:53:18.701Z,39.90
2017-10-01T12:55:46.088Z,39.50
2017-10-01T12:58:18.603Z,40.40
2017-10-01T13:00:46.454Z,40.50
2017-10-01T13:03:13.075Z,40.50
2017-10-01T13:05:40.158Z,43.00
2017-10-01T13:08:06.800Z,42.00
2017-10-01T13:10:34.273Z,42.30
2017-10-01T13:13:01.701Z,44.30
2017-10-01T13:15:28.276Z,40.70
2017-10-01T13:17:54.885Z,39.50
2017-10-01T13:20:22.207Z,39.50
2017-10-01T13:22:48.845Z,39.40
2017-10-01T13:25:15.547Z,38.10
2017-10-01T13:27:42.344Z,38.50
2017-10-01T13:30:08.748Z,40.30
2017-10-01T13:32:35.234Z,38.40
2017-10-01T13:35:02.367Z,41.20
2017-10-01T13:37:28.751Z,40.40
2017-10-01T13:39:55.180Z,39.00
2017-10-01T13:42:21.583Z,39.80
2017-10-01T13:44:48.099Z,39.40
2017-10-01T13:47:14.483Z,41.70
2017-10-01T13:49:40.854Z,40.80
2017-10-01T13:52:07.394Z,41.30
2017-10-01T13:54:33.825Z,40.80
2017-10-01T13:57:00.210Z,41.60
2017-10-01T13:59:26.658Z,40.50
2017-10-01T14:01:53.042Z,40.80
2017-10-01T14:04:19.480Z,40.70
2017-10-01T14:06:46.610Z,41.00
2017-10-01T14:09:12.999Z,40.30
2017-10-01T14:11:39.440Z,41.00
2017-10-01T14:14:05.828Z,41.50
2017-10-01T14:16:32.999Z,43.00
2017-10-01T14:18:59.381Z,43.00
2017-10-01T14:21:25.782Z,42.20
2017-10-01T14:23:52.303Z,42.40
2017-10-01T14:26:18.679Z,42.40
2017-10-01T14:28:45.826Z,42.60
2017-10-01T14:31:18.614Z,42.60
2017-10-01T14:33:45.255Z,43.00
2017-10-01T14:36:11.660Z,41.70
2017-10-01T14:38:38.196Z,42.90
2017-10-01T14:41:05.392Z,45.60
2017-10-01T14:43:31.800Z,43.10
2017-10-01T14:45:58.219Z,42.90
2017-10-01T14:48:24.644Z,44.90
2017-10-01T14:50:51.152Z,43.70
2017-10-01T14:53:17.647Z,44.50
2017-10-01T14:55:44.134Z,42.80
2017-10-01T14:58:10.572Z,43.60
2017-10-01T15:00:37.005Z,42.60
2017-10-01T15:03:03.412Z,43.10
2017-10-01T15:05:29.987Z,43.80
2017-10-01T15:07:56.411Z,44.80
2017-10-01T15:10:23.627Z,44.40
2017-10-01T15:12:50.776Z,46.40
2017-10-01T15:15:17.955Z,46.00
2017-10-01T15:17:44.330Z,45.90
2017-10-01T15:20:10.725Z,47.10
2017-10-01T15:22:37.167Z,47.30
2017-10-01T15:25:03.597Z,47.80
2017-10-01T15:27:30.008Z,47.50
2017-10-01T15:29:56.431Z,47.10
2017-10-01T15:32:25.874Z,47.00
2017-10-01T15:34:52.909Z,47.00
2017-10-01T15:37:19.944Z,47.50
2017-10-01T15:39:47.490Z,47.90
2017-10-01T15:42:16.327Z,48.30
2017-10-01T15:44:43.474Z,47.70
2017-10-01T15:47:10.167Z,48.50
2017-10-01T15:49:36.624Z,47.00
2017-10-01T15:52:03.883Z,45.20
2017-10-01T15:54:30.259Z,45.20
2017-10-01T15:56:56.670Z,48.60
2017-10-01T15:59:23.095Z,48.00
2017-10-01T16:01:49.537Z,48.00
2017-10-01T16:04:15.944Z,47.60
2017-10-01T16:06:42.332Z,50.00
2017-10-01T16:09:09.462Z,50.60
2017-10-01T16:11:35.880Z,50.60
2017-10-01T16:14:02.283Z,53.40
2017-10-01T16:16:28.687Z,53.40
2017-10-01T16:18:55.872Z,54.10
2017-10-01T16:21:22.363Z,54.00
2017-10-01T16:23:49.531Z,56.30
2017-10-01T16:26:15.922Z,56.40
2017-10-01T16:28:42.339Z,55.20
2017-10-01T16:31:08.760Z,55.80
2017-10-01T16:33:35.225Z,56.70
2017-10-01T16:36:02.389Z,58.50
2017-10-01T16:38:28.785Z,58.50
2017-10-01T16:40:55.399Z,59.50
2017-10-01T16:43:21.879Z,61.70
2017-10-01T16:45:48.276Z,62.50
2017-10-01T16:48:14.723Z,62.50
2017-10-01T16:50:41.264Z,61.80
2017-10-01T16:53:07.676Z,61.40
2017-10-01T16:55:34.092Z,62.60
2017-10-01T16:58:00.502Z,62.70
2017-10-01T17:00:27.688Z,64.80
2017-10-01T17:02:54.200Z,64.80
2017-10-01T17:05:20.826Z,64.80
2017-10-01T17:07:47.248Z,64.10
2017-10-01T17:10:13.679Z,64.60
2017-10-01T17:12:40.104Z,64.40
2017-10-01T17:15:06.523Z,63.60
2017-10-01T17:17:33.708Z,66.10
2017-10-01T17:20:00.871Z,66.60
2017-10-01T17:22:28.100Z,66.70
2017-10-01T17:24:54.528Z,66.70
2017-10-01T17:27:20.959Z,67.50
2017-10-01T17:29:47.372Z,67.90
2017-10-01T17:32:13.784Z,68.50
2017-10-01T17:34:40.315Z,69.00
2017-10-01T17:37:06.988Z,69.10
2017-10-01T17:39:34.139Z,69.50
2017-10-01T17:42:00.615Z,69.50
2017-10-01T17:44:27.106Z,69.60
2017-10-01T17:46:54.391Z,70.20
2017-10-01T17:49:21.535Z,71.20
2017-10-01T17:51:48.679Z,72.00
2017-10-01T17:54:16.021Z,71.90
2017-10-01T17:56:42.779Z,70.60
2017-10-01T17:59:09.463Z,71.10
2017-10-01T18:01:35.864Z,71.20
2017-10-01T18:04:02.567Z,71.10
2017-10-01T18:06:30.068Z,70.40
2017-10-01T18:08:56.511Z,71.50
2017-10-01T18:11:23.088Z,71.30
2017-10-01T18:13:49.604Z,72.10
2017-10-01T18:16:16.115Z,72.80
2017-10-01T18:18:42.720Z,72.90
2017-10-01T18:21:09.181Z,72.80
2017-10-01T18:23:35.634Z,71.90
2017-10-01T18:26:02.139Z,72.90
2017-10-01T18:28:28.625Z,72.40
2017-10-01T18:30:55.116Z,72.40
2017-10-01T18:33:21.568Z,72.30
2017-10-01T18:35:48.048Z,72.50
2017-10-01T18:38:14.615Z,71.90
2017-10-01T18:40:41.031Z,73.50
2017-10-01T18:43:08.184Z,73.90
2017-10-01T18:45:34.760Z,73.90
2017-10-01T18:48:01.203Z,73.80
2017-10-01T18:50:27.635Z,73.10
2017-10-01T18:52:54.825Z,73.90
2017-10-01T18:55:21.255Z,74.00
2017-10-01T18:57:48.435Z,74.00
2017-10-01T19:00:15.150Z,73.60
2017-10-01T19:02:41.619Z,74.70
2017-10-01T19:05:08.019Z,74.20
2017-10-01T19:07:35.175Z,73.80
2017-10-01T19:10:02.375Z,75.30
2017-10-01T19:12:28.835Z,75.20
2017-10-01T19:14:55.296Z,74.30
2017-10-01T19:17:21.723Z,73.30
2017-10-01T19:19:48.943Z,74.90
2017-10-01T19:22:15.372Z,74.90
2017-10-01T19:24:41.780Z,75.40
2017-10-01T19:27:08.188Z,74.40
2017-10-01T19:29:34.578Z,75.50
2017-10-01T19:32:01.008Z,76.00
2017-10-01T19:34:27.455Z,76.40
2017-10-01T19:36:53.864Z,75.60
2017-10-01T19:39:20.267Z,75.50
2017-10-01T19:41:46.984Z,74.90
2017-10-01T19:44:13.520Z,76.10
2017-10-01T19:46:40.183Z,75.80
2017-10-01T19:49:06.615Z,76.30
2017-10-01T19:51:33.556Z,76.50
2017-10-01T19:54:00.933Z,77.50
2017-10-01T19:56:27.468Z,77.40
2017-10-01T19:58:53.878Z,76.60
2017-10-01T20:01:20.295Z,75.60
2017-10-01T20:03:46.775Z,77.20
2017-10-01T20:06:13.189Z,76.90
2017-10-01T20:08:39.639Z,77.50
2017-10-01T20:11:06.860Z,77.60
2017-10-01T20:13:33.312Z,77.60
2017-10-01T20:15:59.699Z,78.50
2017-10-01T20:18:26.839Z,77.50
2017-10-01T20:20:54.319Z,78.30
2017-10-01T20:23:20.794Z,78.30
2017-10-01T20:25:47.215Z,77.80
2017-10-01T20:28:13.635Z,77.40
2017-10-01T20:30:40.068Z,76.80
2017-10-01T20:33:06.471Z,77.20
2017-10-01T20:35:33.627Z,76.60
2017-10-01T20:38:00.028Z,76.60
2017-10-01T20:40:26.468Z,77.20
2017-10-01T20:42:52.863Z,76.40
2017-10-01T20:45:19.507Z,75.10
2017-10-01T20:47:46.716Z,76.10
2017-10-01T20:50:13.864Z,75.80
2017-10-01T20:52:41.024Z,76.20
2017-10-01T20:55:07.417Z,76.10
2017-10-01T20:57:33.843Z,76.70
2017-10-01T21:00:00.236Z,76.40
2017-10-01T21:02:26.669Z,76.50
2017-10-01T21:04:53.857Z,75.80
2017-10-01T21:07:20.539Z,75.80
2017-10-01T21:09:46.936Z,77.30
2017-10-01T21:12:13.395Z,77.60
2017-10-01T21:14:40.540Z,76.80
2017-10-01T21:17:07.700Z,76.90
2017-10-01T21:19:34.874Z,76.70
2017-10-01T21:22:01.319Z,76.70
2017-10-01T21:24:27.843Z,77.20
2017-10-01T21:26:54.248Z,77.30
2017-10-01T21:29:21.382Z,77.90
2017-10-01T21:31:47.910Z,77.80
2017-10-01T21:34:14.294Z,77.30
2017-10-01T21:36:40.708Z,77.30
2017-10-01T21:39:07.879Z,77.70
2017-10-01T21:41:34.299Z,77.50
2017-10-01T21:44:00.707Z,77.90
2017-10-01T21:46:27.846Z,77.80
2017-10-01T21:48:54.243Z,77.80
2017-10-01T21:51:20.798Z,77.30
2017-10-01T21:53:47.189Z,77.10
2017-10-01T21:56:13.598Z,75.60
2017-10-01T21:58:40.779Z,77.60
2017-10-01T22:01:07.206Z,77.60
2017-10-01T22:03:33.653Z,78.10
2017-10-01T22:06:00.080Z,77.60
2017-10-01T22:08:26.487Z,77.80
2017-10-01T22:10:52.902Z,77.60
2017-10-01T22:13:20.063Z,78.20
2017-10-01T22:15:47.232Z,78.10
2017-10-01T22:18:13.671Z,78.00
2017-10-01T22:20:40.059Z,77.90
2017-10-01T22:23:06.511Z,78.50
2017-10-01T22:25:33.647Z,78.70
2017-10-01T22:28:00.067Z,78.50
2017-10-01T22:30:26.491Z,78.30
2017-10-01T22:32:53.011Z,78.50
2017-10-01T22:35:19.399Z,78.30
2017-10-01T22:37:45.794Z,78.60
2017-10-01T22:40:12.216Z,78.90
2017-10-01T22:42:38.652Z,78.20
2017-10-01T22:45:05.092Z,78.60
2017-10-01T22:47:31.501Z,78.60
2017-10-01T22:49:57.908Z,79.20
2017-10-01T22:52:24.351Z,79.10
2017-10-01T22:54:50.743Z,78.90
2017-10-01T22:57:17.875Z,79.00
2017-10-01T22:59:44.311Z,79.00
2017-10-01T23:02:10.847Z,79.20
2017-10-01T23:04:37.262Z,79.10
2017-10-01T23:07:03.660Z,78.80
2017-10-01T23:09:30.072Z,79.10
2017-10-01T23:11:56.481Z,78.90
2017-10-01T23:14:23.000Z,79.20
2017-10-01T23:16:49.504Z,78.90
2017-10-01T23:19:15.950Z,78.90
2017-10-01T23:21:42.355Z,78.80
2017-10-01T23:24:08.739Z,78.60
2017-10-01T23:26:35.267Z,78.40
2017-10-01T23:29:01.668Z,78.70
2017-10-01T23:31:28.075Z,79.20
2017-10-01T23:33:54.613Z,79.80
2017-10-01T23:36:20.999Z,78.70
2017-10-01T23:38:47.403Z,78.70
2017-10-01T23:41:13.832Z,78.80
2017-10-01T23:43:40.444Z,78.70
2017-10-01T23:46:06.834Z,78.60
2017-10-01T23:48:33.227Z,78.50
2017-10-01T23:50:59.659Z,79.30
2017-10-01T23:53:26.185Z,77.80
2017-10-01T23:55:52.619Z,78.50
2017-10-01T23:58:18.997Z,77.90
